createdAt,value
2023-04-14T00:02:06.690Z,53.38
2023-04-14T00:04:34.041Z,53.34
2023-04-14T00:07:01.334Z,53.71
2023-04-14T00:09:28.247Z,53.81
2023-04-14T00:11:56.514Z,53.51
2023-04-14T00:14:23.584Z,53.87
2023-04-14T00:16:50.532Z,53.91
2023-04-14T00:19:17.461Z,54.20
2023-04-14T00:21:44.400Z,54.38
2023-04-14T00:24:11.293Z,54.40
2023-04-14T00:26:38.166Z,53.96
2023-04-14T00:29:05.119Z,54.22
2023-04-14T00:31:32.215Z,54.27
2023-04-14T00:34:00.782Z,54.24
2023-04-14T00:36:27.920Z,54.61
2023-04-14T00:38:54.821Z,54.86
2023-04-14T00:41:21.805Z,54.74
2023-04-14T00:43:48.800Z,54.95
2023-04-14T00:46:17.309Z,55.15
2023-04-14T00:48:44.604Z,55.05
2023-04-14T00:51:12.060Z,55.07
2023-04-14T00:53:40.952Z,55.34
2023-04-14T00:56:08.267Z,55.38
2023-04-14T00:58:35.841Z,55.31
2023-04-14T01:01:02.987Z,55.38
2023-04-14T01:03:30.030Z,55.17
2023-04-14T01:05:58.263Z,55.15
2023-04-14T01:08:25.788Z,55.59
2023-04-14T01:11:08.762Z,55.79
2023-04-14T01:13:54.137Z,55.86
2023-04-14T01:16:36.001Z,56.04
2023-04-14T01:19:45.481Z,56.27
2023-04-14T01:22:15.038Z,56.33
2023-04-14T01:25:14.513Z,56.46
2023-04-14T01:28:14.216Z,56.68
2023-04-14T01:30:57.285Z,56.51
2023-04-14T01:33:27.651Z,56.27
2023-04-14T01:35:58.900Z,56.43
2023-04-14T01:38:29.914Z,56.24
2023-04-14T01:41:02.973Z,56.12
2023-04-14T01:43:34.310Z,56.34
2023-04-14T01:46:09.791Z,56.17
2023-04-14T01:48:38.299Z,56.21
2023-04-14T01:51:07.511Z,55.95
2023-04-14T01:53:40.336Z,56.00
2023-04-14T01:56:09.534Z,56.06
2023-04-14T01:58:37.491Z,55.95
2023-04-14T02:01:05.464Z,56.31
2023-04-14T02:03:33.419Z,56.16
2023-04-14T02:06:03.197Z,56.10
2023-04-14T02:08:32.897Z,56.09
2023-04-14T02:11:03.072Z,56.34
2023-04-14T02:13:33.015Z,56.27
2023-04-14T02:16:01.887Z,56.24
2023-04-14T02:18:31.460Z,56.24
2023-04-14T02:21:01.397Z,56.16
2023-04-14T02:23:28.801Z,55.80
2023-04-14T02:26:02.817Z,55.91
2023-04-14T02:28:34.675Z,55.89
2023-04-14T02:31:09.017Z,56.10
2023-04-14T02:33:37.639Z,55.89
2023-04-14T02:36:22.512Z,56.34
2023-04-14T02:38:59.802Z,56.50
2023-04-14T02:41:29.839Z,56.59
2023-04-14T02:44:14.135Z,56.23
2023-04-14T02:47:08.113Z,56.50
2023-04-14T02:49:43.572Z,56.51
2023-04-14T02:52:16.634Z,56.39
2023-04-14T02:54:46.574Z,56.56
2023-04-14T02:57:14.727Z,56.10
2023-04-14T02:59:46.950Z,56.24
2023-04-14T03:02:16.266Z,56.59
2023-04-14T03:04:50.148Z,56.56
2023-04-14T03:07:27.350Z,56.28
2023-04-14T03:09:55.871Z,56.29
2023-04-14T03:12:24.509Z,56.27
2023-04-14T03:14:52.145Z,56.12
2023-04-14T03:17:21.226Z,56.31
2023-04-14T03:19:52.612Z,56.19
2023-04-14T03:22:22.218Z,56.40
2023-04-14T03:24:50.754Z,56.23
2023-04-14T03:27:25.901Z,56.57
2023-04-14T03:29:55.727Z,56.40
2023-04-14T03:32:30.338Z,56.45
2023-04-14T03:34:59.099Z,56.80
2023-04-14T03:37:28.398Z,56.59
2023-04-14T03:40:00.602Z,56.34
2023-04-14T03:42:30.173Z,56.66
2023-04-14T03:45:00.416Z,56.33
2023-04-14T03:47:31.719Z,56.28
2023-04-14T03:50:03.634Z,56.58
2023-04-14T03:52:35.535Z,56.21
2023-04-14T03:55:08.603Z,56.57
2023-04-14T03:57:37.680Z,56.26
2023-04-14T04:00:08.477Z,56.55
2023-04-14T04:02:43.912Z,56.60
2023-04-14T04:05:12.740Z,56.28
2023-04-14T04:07:41.762Z,56.31
2023-04-14T04:10:09.526Z,56.37
2023-04-14T04:12:38.162Z,56.37
2023-04-14T04:15:08.378Z,56.31
2023-04-14T04:17:37.179Z,56.08
2023-04-14T04:20:10.590Z,56.48
2023-04-14T04:22:41.163Z,56.20
2023-04-14T04:25:10.299Z,56.40
2023-04-14T04:27:38.437Z,56.14
2023-04-14T04:30:14.827Z,56.58
2023-04-14T04:32:42.016Z,56.56
2023-04-14T04:35:11.534Z,56.49
2023-04-14T04:37:41.416Z,56.28
2023-04-14T04:40:08.971Z,56.48
2023-04-14T04:42:44.079Z,56.09
2023-04-14T04:45:56.209Z,56.06
2023-04-14T04:48:23.781Z,56.13
2023-04-14T04:50:50.718Z,56.37
2023-04-14T04:53:18.569Z,56.79
2023-04-14T04:55:45.651Z,56.84
2023-04-14T04:58:12.547Z,56.59
2023-04-14T05:00:39.870Z,57.15
2023-04-14T05:03:07.083Z,57.46
2023-04-14T05:05:37.290Z,57.52
2023-04-14T05:08:04.494Z,57.57
2023-04-14T05:10:34.658Z,58.18
2023-04-14T05:13:01.550Z,57.99
2023-04-14T05:15:28.462Z,58.25
2023-04-14T05:17:55.467Z,58.19
2023-04-14T05:20:22.472Z,58.36
2023-04-14T05:22:49.360Z,58.27
2023-04-14T05:25:16.277Z,58.40
2023-04-14T05:27:43.191Z,58.45
2023-04-14T05:30:10.938Z,58.62
2023-04-14T05:32:37.852Z,58.56
2023-04-14T05:35:05.390Z,58.73
2023-04-14T05:37:32.755Z,58.83
2023-04-14T05:40:01.374Z,58.56
2023-04-14T05:42:28.269Z,58.56
2023-04-14T05:44:55.252Z,58.46
2023-04-14T05:47:22.117Z,58.55
2023-04-14T05:49:49.017Z,58.09
2023-04-14T05:52:16.056Z,58.17
2023-04-14T05:54:43.324Z,57.93
2023-04-14T05:57:10.325Z,57.99
2023-04-14T05:59:37.265Z,57.84
2023-04-14T06:02:07.272Z,57.78
2023-04-14T06:04:34.507Z,57.97
2023-04-14T06:07:02.891Z,58.13
2023-04-14T06:09:29.862Z,58.00
2023-04-14T06:11:56.875Z,58.64
2023-04-14T06:14:23.932Z,58.52
2023-04-14T06:16:51.050Z,58.39
2023-04-14T06:19:21.069Z,58.75
2023-04-14T06:21:48.036Z,58.76
2023-04-14T06:24:14.925Z,58.96
2023-04-14T06:26:42.430Z,58.77
2023-04-14T06:29:09.419Z,58.85
2023-04-14T06:31:36.448Z,58.67
2023-04-14T06:34:03.344Z,58.92
2023-04-14T06:36:30.193Z,58.77
2023-04-14T06:38:58.293Z,58.90
2023-04-14T06:41:25.316Z,58.72
2023-04-14T06:43:52.247Z,58.69
2023-04-14T06:46:19.308Z,58.86
2023-04-14T06:48:46.349Z,58.99
2023-04-14T06:51:13.778Z,59.16
2023-04-14T06:53:40.804Z,59.49
2023-04-14T06:56:08.235Z,59.63
2023-04-14T06:58:35.277Z,59.95
2023-04-14T07:01:03.632Z,59.98
2023-04-14T07:03:31.237Z,59.82
2023-04-14T07:06:06.910Z,60.01
2023-04-14T07:08:35.200Z,59.75
2023-04-14T07:11:04.297Z,59.35
2023-04-14T07:13:31.664Z,59.40
2023-04-14T07:15:59.345Z,59.33
2023-04-14T07:18:26.325Z,59.15
2023-04-14T07:20:54.198Z,58.86
2023-04-14T07:23:22.085Z,58.72
2023-04-14T07:25:53.721Z,58.68
2023-04-14T07:28:22.118Z,58.71
2023-04-14T07:30:50.203Z,58.45
2023-04-14T07:33:19.042Z,58.46
2023-04-14T07:36:00.765Z,58.14
2023-04-14T07:38:29.691Z,58.12
2023-04-14T07:40:56.676Z,58.36
2023-04-14T07:43:23.943Z,58.41
2023-04-14T07:45:52.585Z,58.54
2023-04-14T07:48:21.378Z,58.36
2023-04-14T07:50:49.916Z,58.13
2023-04-14T07:53:16.904Z,58.39
2023-04-14T07:55:43.836Z,58.35
2023-04-14T07:58:15.365Z,58.36
2023-04-14T08:00:43.019Z,58.44
2023-04-14T08:03:10.282Z,58.54
2023-04-14T08:05:37.778Z,58.40
2023-04-14T08:08:05.023Z,58.48
2023-04-14T08:10:31.963Z,58.41
2023-04-14T08:12:59.836Z,58.59
2023-04-14T08:15:27.939Z,58.53
2023-04-14T08:17:54.895Z,58.42
2023-04-14T08:20:22.851Z,58.64
2023-04-14T08:22:49.775Z,58.83
2023-04-14T08:25:16.812Z,58.96
2023-04-14T08:27:44.250Z,59.15
2023-04-14T08:30:11.774Z,59.31
2023-04-14T08:32:38.785Z,59.35
2023-04-14T08:35:38.738Z,59.49
2023-04-14T08:37:53.440Z,59.78
2023-04-14T08:40:22.519Z,60.16
2023-04-14T08:42:49.845Z,60.02
2023-04-14T08:45:19.137Z,60.34
2023-04-14T08:47:48.438Z,60.51
2023-04-14T08:50:18.578Z,60.21
2023-04-14T08:52:47.474Z,60.24
2023-04-14T08:55:16.749Z,59.88
2023-04-14T08:57:44.197Z,60.17
2023-04-14T09:00:11.840Z,60.07
2023-04-14T09:02:40.688Z,60.14
2023-04-14T09:05:09.121Z,60.02
2023-04-14T09:07:36.887Z,60.05
2023-04-14T09:10:04.710Z,60.05
2023-04-14T09:12:32.434Z,60.17
2023-04-14T09:14:59.805Z,59.66
2023-04-14T09:17:28.855Z,60.36
2023-04-14T09:20:38.605Z,60.59
2023-04-14T09:22:42.965Z,59.94
2023-04-14T09:25:11.282Z,60.17
2023-04-14T09:27:38.476Z,59.86
2023-04-14T09:30:06.829Z,60.14
2023-04-14T09:32:33.749Z,60.19
2023-04-14T09:35:00.700Z,60.20
2023-04-14T09:37:27.584Z,60.12
2023-04-14T09:39:55.694Z,60.43
2023-04-14T09:42:42.557Z,60.33
2023-04-14T09:45:10.197Z,60.31
2023-04-14T09:47:37.595Z,60.22
2023-04-14T09:50:04.974Z,60.38
2023-04-14T09:52:44.686Z,60.39
2023-04-14T09:55:14.228Z,60.41
2023-04-14T09:57:47.590Z,60.35
2023-04-14T10:00:22.466Z,60.48
2023-04-14T10:02:52.205Z,60.21
2023-04-14T10:05:31.082Z,60.51
2023-04-14T10:08:04.157Z,60.38
2023-04-14T10:10:31.231Z,60.31
2023-04-14T10:13:00.536Z,60.25
2023-04-14T10:15:28.124Z,59.64
2023-04-14T10:17:55.888Z,59.94
2023-04-14T10:20:22.926Z,59.51
2023-04-14T10:22:50.676Z,59.00
2023-04-14T10:25:18.690Z,59.16
2023-04-14T10:27:45.995Z,59.23
2023-04-14T10:30:13.126Z,59.07
2023-04-14T10:32:41.517Z,58.96
2023-04-14T10:35:14.917Z,59.07
2023-04-14T10:37:51.426Z,58.68
2023-04-14T10:40:18.884Z,58.42
2023-04-14T10:42:57.104Z,58.29
2023-04-14T10:45:24.131Z,58.17
2023-04-14T10:47:51.754Z,58.21
2023-04-14T10:50:24.993Z,57.78
2023-04-14T10:52:55.733Z,57.08
2023-04-14T10:55:24.813Z,57.21
2023-04-14T10:57:54.527Z,57.05
2023-04-14T11:00:25.176Z,57.12
2023-04-14T11:03:10.822Z,57.08
2023-04-14T11:05:53.665Z,56.58
2023-04-14T11:08:34.521Z,56.57
2023-04-14T11:11:04.140Z,56.60
2023-04-14T11:13:35.646Z,56.69
2023-04-14T11:16:07.252Z,56.62
2023-04-14T11:18:42.698Z,56.68
2023-04-14T11:21:16.791Z,56.69
2023-04-14T11:23:44.373Z,56.48
2023-04-14T11:26:14.053Z,56.93
2023-04-14T11:28:43.553Z,57.04
2023-04-14T11:31:17.153Z,57.17
2023-04-14T11:33:44.985Z,56.54
2023-04-14T11:36:12.957Z,56.74
2023-04-14T11:38:42.556Z,56.92
2023-04-14T11:41:10.104Z,57.15
2023-04-14T11:43:46.535Z,57.39
2023-04-14T11:46:13.618Z,57.64
2023-04-14T11:48:41.015Z,57.87
2023-04-14T11:51:07.916Z,58.15
2023-04-14T11:53:36.332Z,58.02
2023-04-14T11:56:03.881Z,58.21
2023-04-14T11:58:31.378Z,58.29
2023-04-14T12:00:58.275Z,58.22
2023-04-14T12:03:31.156Z,58.28
2023-04-14T12:06:03.251Z,58.75
2023-04-14T12:08:31.447Z,58.84
2023-04-14T12:10:58.992Z,58.73
2023-04-14T12:13:26.929Z,58.52
2023-04-14T12:15:54.569Z,58.67
2023-04-14T12:18:22.336Z,58.09
2023-04-14T12:21:01.907Z,58.41
2023-04-14T12:23:28.885Z,58.14
2023-04-14T12:25:56.095Z,58.55
2023-04-14T12:28:30.489Z,58.30
2023-04-14T12:31:04.028Z,59.10
2023-04-14T12:33:32.868Z,59.34
2023-04-14T12:36:08.013Z,59.66
2023-04-14T12:38:35.000Z,59.54
2023-04-14T12:41:02.668Z,59.88
2023-04-14T12:43:36.837Z,59.80
2023-04-14T12:46:05.681Z,60.06
2023-04-14T12:48:48.255Z,59.96
2023-04-14T12:51:17.543Z,59.93
2023-04-14T12:53:46.896Z,60.15
2023-04-14T12:56:27.376Z,60.21
2023-04-14T12:58:55.238Z,60.18
2023-04-14T13:01:23.597Z,60.37
2023-04-14T13:03:55.770Z,60.04
2023-04-14T13:06:24.544Z,60.01
2023-04-14T13:08:53.558Z,59.85
2023-04-14T13:11:25.811Z,59.46
2023-04-14T13:13:53.665Z,59.33
2023-04-14T13:16:21.395Z,59.56
2023-04-14T13:18:49.247Z,59.06
2023-04-14T13:21:16.961Z,59.05
2023-04-14T13:23:43.965Z,59.27
2023-04-14T13:26:12.450Z,59.06
2023-04-14T13:28:39.417Z,59.73
2023-04-14T13:31:06.813Z,59.48
2023-04-14T13:33:33.782Z,59.56
2023-04-14T13:36:03.075Z,59.78
2023-04-14T13:38:30.829Z,60.17
2023-04-14T13:40:57.800Z,60.20
2023-04-14T13:43:24.780Z,60.22
2023-04-14T13:45:52.001Z,60.11
2023-04-14T13:48:19.215Z,60.14
2023-04-14T13:50:46.254Z,60.23
2023-04-14T13:53:13.164Z,60.28
2023-04-14T13:55:40.107Z,60.40
2023-04-14T13:58:07.028Z,60.76
2023-04-14T14:00:34.012Z,61.19
2023-04-14T14:03:01.334Z,61.70
2023-04-14T14:05:28.737Z,61.83
2023-04-14T14:07:58.628Z,62.12
2023-04-14T14:10:25.533Z,62.55
2023-04-14T14:12:53.249Z,62.67
2023-04-14T14:15:20.286Z,62.65
2023-04-14T14:17:47.287Z,62.90
2023-04-14T14:20:14.220Z,62.97
2023-04-14T14:22:41.099Z,63.46
2023-04-14T14:25:19.547Z,63.38
2023-04-14T14:27:47.779Z,63.52
2023-04-14T14:30:14.724Z,63.30
2023-04-14T14:32:41.679Z,63.32
2023-04-14T14:35:09.530Z,63.70
2023-04-14T14:37:36.572Z,63.91
2023-04-14T14:40:03.939Z,63.84
2023-04-14T14:42:31.182Z,64.03
2023-04-14T14:45:01.028Z,63.69
2023-04-14T14:47:28.600Z,63.85
2023-04-14T14:50:02.040Z,63.75
2023-04-14T14:52:31.977Z,64.18
2023-04-14T14:54:59.110Z,64.39
2023-04-14T14:57:26.818Z,64.73
2023-04-14T14:59:53.952Z,65.14
2023-04-14T15:02:21.764Z,65.17
2023-04-14T15:04:49.639Z,65.44
2023-04-14T15:07:16.664Z,65.33
2023-04-14T15:09:45.942Z,65.10
2023-04-14T15:12:12.889Z,65.17
2023-04-14T15:14:39.797Z,65.68
2023-04-14T15:17:07.066Z,65.83
2023-04-14T15:19:34.004Z,66.00
2023-04-14T15:22:01.520Z,65.93
2023-04-14T15:24:28.507Z,66.08
2023-04-14T15:26:56.053Z,66.08
2023-04-14T15:29:25.072Z,65.87
2023-04-14T15:31:52.137Z,65.47
2023-04-14T15:34:19.106Z,65.47
2023-04-14T15:36:46.007Z,65.46
2023-04-14T15:39:12.932Z,65.57
2023-04-14T15:41:39.818Z,65.56
2023-04-14T15:44:06.697Z,65.65
2023-04-14T15:46:33.584Z,65.25
2023-04-14T15:49:00.697Z,65.83
2023-04-14T15:51:27.628Z,65.62
2023-04-14T15:53:54.509Z,65.77
2023-04-14T15:56:23.294Z,65.76
2023-04-14T15:58:50.590Z,65.70
2023-04-14T16:01:17.731Z,65.56
2023-04-14T16:03:45.098Z,65.45
2023-04-14T16:06:12.298Z,66.07
2023-04-14T16:08:39.294Z,65.96
2023-04-14T16:11:06.258Z,66.00
2023-04-14T16:13:33.192Z,66.07
2023-04-14T16:16:00.391Z,65.91
2023-04-14T16:18:27.597Z,66.29
2023-04-14T16:20:54.473Z,66.23
2023-04-14T16:23:21.969Z,66.09
2023-04-14T16:25:51.745Z,66.06
2023-04-14T16:28:18.657Z,65.67
2023-04-14T16:30:48.728Z,66.04
2023-04-14T16:33:16.071Z,65.81
2023-04-14T16:35:42.940Z,66.22
2023-04-14T16:38:09.842Z,66.18
2023-04-14T16:40:37.979Z,66.05
2023-04-14T16:43:04.945Z,66.32
2023-04-14T16:45:32.448Z,66.26
2023-04-14T16:48:00.080Z,66.10
2023-04-14T16:50:27.545Z,65.93
2023-04-14T16:52:54.613Z,66.13
2023-04-14T16:55:21.551Z,65.98
2023-04-14T16:57:48.562Z,66.09
2023-04-14T17:00:16.751Z,66.09
2023-04-14T17:02:43.918Z,66.05
2023-04-14T17:05:13.217Z,65.64
2023-04-14T17:07:41.082Z,65.89
2023-04-14T17:10:08.634Z,65.84
2023-04-14T17:12:35.575Z,65.85
2023-04-14T17:15:03.648Z,65.21
2023-04-14T17:17:31.672Z,65.56
2023-04-14T17:19:58.577Z,65.41
2023-04-14T17:22:25.473Z,65.64
2023-04-14T17:24:52.494Z,65.64
2023-04-14T17:27:20.165Z,65.45
2023-04-14T17:29:47.405Z,66.01
2023-04-14T17:32:14.477Z,65.81
2023-04-14T17:34:41.515Z,65.96
2023-04-14T17:37:08.889Z,66.28
2023-04-14T17:39:35.784Z,66.00
2023-04-14T17:42:03.426Z,65.76
2023-04-14T17:44:33.129Z,65.95
2023-04-14T17:47:12.638Z,66.03
2023-04-14T17:49:39.591Z,65.82
2023-04-14T17:52:17.069Z,65.87
2023-04-14T17:54:45.796Z,66.04
2023-04-14T17:57:13.417Z,65.56
2023-04-14T17:59:44.825Z,65.79
2023-04-14T18:02:14.202Z,65.59
2023-04-14T18:04:41.219Z,65.49
2023-04-14T18:07:08.139Z,65.39
2023-04-14T18:09:35.064Z,65.21
2023-04-14T18:12:01.997Z,65.45
2023-04-14T18:14:29.887Z,65.47
2023-04-14T18:16:57.252Z,64.85
2023-04-14T18:19:24.428Z,65.10
2023-04-14T18:21:51.433Z,65.01
2023-04-14T18:26:48.089Z,65.21
2023-04-14T18:29:14.988Z,65.14
2023-04-14T18:31:42.659Z,65.13
2023-04-14T18:34:10.364Z,64.70
2023-04-14T18:36:38.757Z,64.65
2023-04-14T18:39:07.036Z,64.66
2023-04-14T18:41:34.275Z,64.39
2023-04-14T18:44:01.307Z,64.17
2023-04-14T18:46:28.420Z,64.23
2023-04-14T18:48:55.420Z,64.12
2023-04-14T18:51:22.412Z,64.22
2023-04-14T18:53:49.413Z,64.57
2023-04-14T18:56:16.330Z,64.62
2023-04-14T18:58:43.221Z,64.56
2023-04-14T19:01:10.175Z,64.59
2023-04-14T19:03:37.726Z,64.26
2023-04-14T19:06:04.799Z,64.00
2023-04-14T19:08:31.746Z,64.22
2023-04-14T19:10:59.315Z,64.49
2023-04-14T19:13:26.519Z,63.96
2023-04-14T19:15:53.882Z,63.88
2023-04-14T19:18:20.822Z,64.15
2023-04-14T19:20:49.539Z,64.01
2023-04-14T19:23:16.461Z,64.09
2023-04-14T19:25:43.340Z,64.24
2023-04-14T19:28:16.515Z,64.39
2023-04-14T19:30:45.578Z,64.02
2023-04-14T19:33:12.936Z,64.39
2023-04-14T19:35:40.052Z,64.03
2023-04-14T19:38:07.780Z,64.34
2023-04-14T19:40:34.671Z,64.42
2023-04-14T19:43:01.840Z,64.24
2023-04-14T19:45:28.798Z,64.11
2023-04-14T19:47:55.770Z,64.44
2023-04-14T19:50:22.787Z,64.40
2023-04-14T19:52:51.890Z,64.32
2023-04-14T19:55:19.054Z,64.36
2023-04-14T19:57:46.994Z,64.34
2023-04-14T20:00:15.664Z,64.44
2023-04-14T20:02:42.936Z,64.23
2023-04-14T20:05:10.043Z,64.46
2023-04-14T20:07:37.001Z,64.45
2023-04-14T20:10:04.098Z,64.70
2023-04-14T20:12:31.063Z,64.67
2023-04-14T20:14:58.149Z,64.34
2023-04-14T20:17:27.218Z,64.82
2023-04-14T20:19:54.766Z,64.87
2023-04-14T20:22:21.644Z,65.28
2023-04-14T20:24:48.544Z,65.92
2023-04-14T20:27:15.456Z,66.55
2023-04-14T20:29:42.350Z,66.71
2023-04-14T20:32:09.527Z,67.36
2023-04-14T20:34:36.419Z,67.49
2023-04-14T20:37:03.305Z,67.79
2023-04-14T20:39:30.564Z,67.84
2023-04-14T20:41:57.477Z,68.18
2023-04-14T20:44:24.432Z,68.13
2023-04-14T20:46:51.854Z,67.58
2023-04-14T20:49:18.725Z,67.47
2023-04-14T20:51:46.782Z,67.06
2023-04-14T20:54:13.933Z,66.70
2023-04-14T20:56:40.821Z,66.72
2023-04-14T20:59:07.707Z,66.43
2023-04-14T21:01:34.571Z,66.22
2023-04-14T21:04:01.565Z,65.97
2023-04-14T21:06:29.057Z,66.19
2023-04-14T21:08:56.891Z,66.18
2023-04-14T21:11:23.767Z,66.32
2023-04-14T21:15:25.472Z,66.39
2023-04-14T21:16:38.171Z,66.21
2023-04-14T21:19:05.532Z,66.23
2023-04-14T21:21:32.985Z,66.17
2023-04-14T21:23:59.909Z,66.33
2023-04-14T21:26:28.398Z,66.29
2023-04-14T21:28:55.283Z,66.70
2023-04-14T21:31:22.166Z,66.13
2023-04-14T21:33:49.004Z,65.95
2023-04-14T21:36:15.838Z,65.88
2023-04-14T21:38:43.379Z,65.79
2023-04-14T21:41:10.684Z,66.03
2023-04-14T21:43:40.923Z,65.88
2023-04-14T21:46:08.050Z,65.58
2023-04-14T21:48:35.030Z,65.61
2023-04-14T21:51:02.413Z,65.42
2023-04-14T21:53:29.795Z,65.73
2023-04-14T21:56:04.431Z,65.97
2023-04-14T21:58:36.632Z,66.08
2023-04-14T22:01:03.694Z,66.14
2023-04-14T22:03:30.816Z,66.66
2023-04-14T22:05:57.803Z,66.70
2023-04-14T22:08:24.673Z,67.22
2023-04-14T22:10:52.809Z,67.45
2023-04-14T22:13:19.678Z,67.48
2023-04-14T22:15:47.263Z,67.28
2023-04-14T22:18:14.126Z,67.32
2023-04-14T22:20:40.972Z,67.60
2023-04-14T22:23:07.814Z,67.57
2023-04-14T22:25:35.496Z,67.65
2023-04-14T22:28:02.352Z,67.53
2023-04-14T22:30:29.838Z,67.54
2023-04-14T22:32:57.340Z,67.33
2023-04-14T22:35:24.332Z,67.31
2023-04-14T22:37:51.665Z,67.55
2023-04-14T22:40:18.574Z,67.62
2023-04-14T22:42:46.495Z,68.06
2023-04-14T22:45:13.583Z,67.92
2023-04-14T22:47:40.726Z,67.82
2023-04-14T22:50:09.012Z,67.46
2023-04-14T22:52:36.341Z,67.41
2023-04-14T22:55:03.394Z,67.17
2023-04-14T22:57:30.305Z,67.37
2023-04-14T22:59:57.403Z,67.51
2023-04-14T23:02:24.471Z,67.51
2023-04-14T23:04:52.063Z,67.38
2023-04-14T23:07:18.952Z,67.62
2023-04-14T23:09:45.827Z,67.83
2023-04-14T23:12:12.691Z,67.47
2023-04-14T23:14:39.559Z,67.84
2023-04-14T23:17:06.699Z,67.96
2023-04-14T23:19:33.651Z,67.63
2023-04-14T23:22:00.545Z,67.72
2023-04-14T23:24:27.490Z,67.90
2023-04-14T23:26:54.439Z,67.64
2023-04-14T23:29:21.415Z,67.65
2023-04-14T23:31:48.346Z,67.81
2023-04-14T23:34:15.276Z,68.06
2023-04-14T23:36:42.462Z,67.85
2023-04-14T23:39:09.330Z,67.75
2023-04-14T23:41:36.182Z,67.86
2023-04-14T23:44:03.077Z,67.82
2023-04-14T23:46:30.025Z,68.14
2023-04-14T23:48:57.823Z,68.12
2023-04-14T23:51:27.041Z,68.03
2023-04-14T23:53:54.121Z,67.97
2023-04-14T23:56:21.345Z,68.11
2023-04-14T23:58:48.530Z,68.20
